Time;durP1;ratioP1;P1;durP2;ratioP2;P2;SDS_P1;SDS_P2;PMS_P1;PMS_P2;Temp;Humidity;BMP_temperature;BMP_pressure;BME280_temperature;BME280_humidity;BME280_pressure;Samples;Min_cycle;Max_cycle;Signal;HPM_P1;HPM_P2
2022/03/01 00:02:27;;;;;;;15.1;10.4;;;;;;;-1.44;70.94922;947.8423;;;;
2022/03/01 00:05:03;;;;;;;14.8;10.4;;;;;;;-1.64;71.71484;947.8876;;;;
2022/03/01 00:07:50;;;;;;;16.4;10.9;;;;;;;-1.81;72.37109;947.8502;;;;
2022/03/01 00:10:27;;;;;;;15.8;10.5;;;;;;;-1.73;71.98633;947.8468;;;;
2022/03/01 00:13:02;;;;;;;15.3;10.5;;;;;;;-1.79;72.28711;947.9178;;;;
2022/03/01 00:15:39;;;;;;;14.1;9.7;;;;;;;-2.06;72.81836;947.8725;;;;
2022/03/01 00:18:17;;;;;;;14.1;9.8;;;;;;;-2.05;72.97559;947.7562;;;;
2022/03/01 00:20:54;;;;;;;14;9.4;;;;;;;-2.09;73.04492;947.8797;;;;
2022/03/01 00:23:32;;;;;;;13.3;9.5;;;;;;;-2.1;73.16504;947.8833;;;;
2022/03/01 00:26:07;;;;;;;15;10;;;;;;;-2.07;73.10352;947.863;;;;
2022/03/01 00:28:40;;;;;;;15.3;10.3;;;;;;;-1.99;73.08496;947.9889;;;;
2022/03/01 00:31:19;;;;;;;15.3;9.8;;;;;;;-1.86;72.375;947.9656;;;;
2022/03/01 00:33:53;;;;;;;15.7;9.5;;;;;;;-2.11;73.04199;947.9428;;;;
2022/03/01 00:36:29;;;;;;;13.1;9.6;;;;;;;-2.31;73.70508;947.9475;;;;
2022/03/01 00:38:56;;;;;;;13.3;8.8;;;;;;;-2.21;73.2793;947.9433;;;;
2022/03/01 00:41:35;;;;;;;14.9;9.9;;;;;;;-2.27;73.4668;947.9344;;;;
2022/03/01 00:44:02;;;;;;;14.1;9.9;;;;;;;-2.13;72.9375;947.9924;;;;
2022/03/01 00:46:27;;;;;;;15.4;10;;;;;;;-2.17;72.78906;947.9325;;;;
2022/03/01 00:48:53;;;;;;;13.9;9.4;;;;;;;-2.13;72.84863;947.9316;;;;
2022/03/01 00:51:22;;;;;;;14;10.4;;;;;;;-2.18;73.04102;947.9455;;;;
2022/03/01 00:53:47;;;;;;;13.1;9.8;;;;;;;-2.25;73.26074;947.9045;;;;
2022/03/01 00:56:12;;;;;;;12.5;8.8;;;;;;;-2.42;73.91895;947.8683;;;;
2022/03/01 00:58:40;;;;;;;12.6;8.4;;;;;;;-2.58;74.6416;947.7863;;;;
2022/03/01 01:01:05;;;;;;;13.8;9.2;;;;;;;-2.59;74.97363;947.7428;;;;
2022/03/01 01:03:34;;;;;;;12.1;9;;;;;;;-2.46;74.36523;947.6277;;;;
2022/03/01 01:05:59;;;;;;;12.3;8.8;;;;;;;-2.49;74.4375;947.536;;;;
2022/03/01 01:08:28;;;;;;;14.1;8.9;;;;;;;-2.68;75.16797;947.4509;;;;
2022/03/01 01:10:53;;;;;;;12.3;9.3;;;;;;;-2.77;75.68262;947.4183;;;;
2022/03/01 01:13:22;;;;;;;14.5;9.8;;;;;;;-2.79;75.88965;947.3834;;;;
2022/03/01 01:16:00;;;;;;;14.1;9.9;;;;;;;-2.69;75.67383;947.4213;;;;
2022/03/01 01:18:30;;;;;;;14.4;9;;;;;;;-2.7;75.19629;947.4808;;;;
2022/03/01 01:20:56;;;;;;;11.7;8.6;;;;;;;-2.7;74.53223;947.4012;;;;
2022/03/01 01:23:25;;;;;;;13.7;9.5;;;;;;;-2.59;74.13184;947.3303;;;;
2022/03/01 01:25:50;;;;;;;13.3;9.7;;;;;;;-2.46;73.42383;947.2774;;;;
2022/03/01 01:28:19;;;;;;;14.3;10.1;;;;;;;-2.37;72.6084;947.3894;;;;
2022/03/01 01:30:45;;;;;;;14.4;10.3;;;;;;;-2.36;72.37891;947.4124;;;;
2022/03/01 01:33:15;;;;;;;15;10.6;;;;;;;-2.49;72.45605;947.3582;;;;
2022/03/01 01:35:45;;;;;;;15.3;10.3;;;;;;;-2.46;72.10547;947.3915;;;;
2022/03/01 01:38:10;;;;;;;15;9.9;;;;;;;-2.33;71.1084;947.3549;;;;
2022/03/01 01:40:36;;;;;;;13.8;10;;;;;;;-2.32;70.44727;947.384;;;;
2022/03/01 01:43:01;;;;;;;16.1;10;;;;;;;-2.12;69.2373;947.2498;;;;
2022/03/01 01:45:29;;;;;;;12.6;9.3;;;;;;;-2.03;69.35352;947.2449;;;;
2022/03/01 01:47:54;;;;;;;13.7;8.9;;;;;;;-2.08;69.42188;947.1591;;;;
2022/03/01 01:50:23;;;;;;;12.6;8.9;;;;;;;-2.22;69.73047;947.2267;;;;
2022/03/01 01:52:48;;;;;;;10.6;8.6;;;;;;;-2.2;70.14355;947.1156;;;;
2022/03/01 01:55:17;;;;;;;13.3;9.3;;;;;;;-2.15;70.2207;947.199;;;;
2022/03/01 01:57:42;;;;;;;14.9;9;;;;;;;-2.14;70.30957;947.162;;;;
2022/03/01 02:00:17;;;;;;;14.1;9.4;;;;;;;-2.05;69.6709;947.1216;;;;
2022/03/01 02:02:42;;;;;;;12.9;9.1;;;;;;;-2.16;70.00684;947.0826;;;;
2022/03/01 02:05:07;;;;;;;12.9;9.5;;;;;;;-2.17;69.79492;947.0435;;;;
2022/03/01 02:07:32;;;;;;;12.6;9.6;;;;;;;-2.16;70.15234;947.1631;;;;
2022/03/01 02:10:00;;;;;;;12.8;9.5;;;;;;;-2.17;69.27441;947.2269;;;;
2022/03/01 02:12:25;;;;;;;12.9;9.4;;;;;;;-2.27;68.4375;947.1367;;;;
2022/03/01 02:14:55;;;;;;;13.2;9.5;;;;;;;-2.29;67.83691;947.155;;;;
2022/03/01 02:17:23;;;;;;;14.1;9.8;;;;;;;-2.32;68.09863;947.2068;;;;
2022/03/01 02:19:53;;;;;;;13.5;9.6;;;;;;;-2.33;68.47168;947.1511;;;;
2022/03/01 02:22:18;;;;;;;15.8;10.1;;;;;;;-2.27;68.49219;947.1577;;;;
2022/03/01 02:24:50;;;;;;;14.9;10;;;;;;;-2.4;69.08203;947.1183;;;;
2022/03/01 02:27:15;;;;;;;13.6;9.9;;;;;;;-2.27;68.67969;947.1092;;;;
2022/03/01 02:29:42;;;;;;;12.9;9.6;;;;;;;-2.32;67.28809;947.1175;;;;
2022/03/01 02:32:08;;;;;;;14.2;9.6;;;;;;;-2.2;66.41992;947.0922;;;;
2022/03/01 02:34:37;;;;;;;13.8;9.8;;;;;;;-2.11;66.48047;947.0809;;;;
2022/03/01 02:37:02;;;;;;;13.2;9.4;;;;;;;-2.08;67.79395;947.185;;;;
2022/03/01 02:39:29;;;;;;;12.6;9.4;;;;;;;-2.51;70.08301;947.2513;;;;
2022/03/01 02:41:54;;;;;;;13.2;9.7;;;;;;;-2.38;69.89355;947.2633;;;;
2022/03/01 02:44:21;;;;;;;14.1;9.2;;;;;;;-2.52;70.22363;947.2449;;;;
2022/03/01 02:46:46;;;;;;;13.4;9.6;;;;;;;-2.61;70.76172;947.2739;;;;
2022/03/01 02:49:13;;;;;;;11.4;9.2;;;;;;;-2.72;71.0332;947.2468;;;;
2022/03/01 02:51:38;;;;;;;13.1;9.6;;;;;;;-2.58;70.65625;947.175;;;;
2022/03/01 02:54:04;;;;;;;12.9;9.8;;;;;;;-2.77;71.37793;947.1383;;;;
2022/03/01 02:56:29;;;;;;;14.7;10.3;;;;;;;-2.79;71.61816;947.1306;;;;
2022/03/01 02:58:59;;;;;;;16.5;10.6;;;;;;;-2.78;71.8291;947.1261;;;;
2022/03/01 03:01:26;;;;;;;16.3;10;;;;;;;-2.91;72.2168;947.0728;;;;
2022/03/01 03:03:51;;;;;;;15.4;10.3;;;;;;;-2.99;72.7998;947.0851;;;;
2022/03/01 03:06:16;;;;;;;12.8;9.7;;;;;;;-2.96;72.79297;947.0245;;;;
2022/03/01 03:08:41;;;;;;;16.3;10.1;;;;;;;-2.91;72.73828;947.0239;;;;
2022/03/01 03:11:09;;;;;;;13;9.9;;;;;;;-2.96;72.86133;947.0342;;;;
2022/03/01 03:13:38;;;;;;;14.3;9.9;;;;;;;-2.85;72.41504;947.0784;;;;
2022/03/01 03:16:12;;;;;;;15;10.3;;;;;;;-2.78;72.28223;947.055;;;;
2022/03/01 03:18:44;;;;;;;15.3;10.2;;;;;;;-2.73;71.9707;947.0587;;;;
2022/03/01 03:21:16;;;;;;;15.2;10;;;;;;;-2.85;72.31543;947.0156;;;;
2022/03/01 03:23:46;;;;;;;19.2;10.8;;;;;;;-2.98;72.90039;947.0916;;;;
2022/03/01 03:26:11;;;;;;;12.9;9.6;;;;;;;-3.13;73.48535;947.1266;;;;
2022/03/01 03:28:43;;;;;;;20;10.2;;;;;;;-3.17;73.92871;947.1605;;;;
2022/03/01 03:31:12;;;;;;;13.3;9.6;;;;;;;-3.2;74.10156;947.0736;;;;
2022/03/01 03:33:35;;;;;;;14.3;10.2;;;;;;;-3.17;74.16113;947.1102;;;;
2022/03/01 03:36:07;;;;;;;15.2;10.1;;;;;;;-3.28;74.47559;947.0458;;;;
2022/03/01 03:38:38;;;;;;;13.4;9.4;;;;;;;-3.33;74.71973;947.0233;;;;
2022/03/01 03:41:02;;;;;;;13.9;9.3;;;;;;;-3.49;75.61914;946.9719;;;;
2022/03/01 03:43:29;;;;;;;13.6;9.9;;;;;;;-3.26;74.14648;946.9662;;;;
2022/03/01 03:45:56;;;;;;;15.3;9.9;;;;;;;-3.2;73.49316;946.8461;;;;
2022/03/01 03:48:24;;;;;;;15.5;9.7;;;;;;;-3.22;73.7998;946.9995;;;;
2022/03/01 03:50:53;;;;;;;15.1;9.8;;;;;;;-3.31;74.47949;946.9155;;;;
2022/03/01 03:53:23;;;;;;;14.6;10.5;;;;;;;-3.39;74.92969;947.0262;;;;
2022/03/01 03:55:55;;;;;;;14.9;10.4;;;;;;;-3.6;75.8623;946.9559;;;;
2022/03/01 03:58:24;;;;;;;17.1;11;;;;;;;-3.59;76.40723;946.9309;;;;
2022/03/01 04:02:35;;;;;;;22;12.7;;;;;;;-3.48;75.57617;946.968;;;;
2022/03/01 04:05:10;;;;;;;19.8;12.3;;;;;;;-3.5;75.81641;946.8836;;;;
2022/03/01 04:07:35;;;;;;;21.5;12.5;;;;;;;-3.46;75.39355;946.8231;;;;
2022/03/01 04:10:05;;;;;;;16.8;11.4;;;;;;;-3.48;75.25586;946.8139;;;;
2022/03/01 04:12:31;;;;;;;16.4;10.9;;;;;;;-3.59;75.75391;946.8434;;;;
2022/03/01 04:14:56;;;;;;;19.8;11.1;;;;;;;-3.77;76.45313;946.8176;;;;
2022/03/01 04:17:29;;;;;;;22.2;12.1;;;;;;;-3.72;76.42676;946.8195;;;;
2022/03/01 04:19:55;;;;;;;18.5;12;;;;;;;-3.72;76.7373;946.7701;;;;
2022/03/01 04:22:29;;;;;;;18.6;11.8;;;;;;;-3.72;76.49414;946.7327;;;;
2022/03/01 04:24:52;;;;;;;21.7;12;;;;;;;-3.57;75.60254;946.7219;;;;
2022/03/01 04:27:24;;;;;;;20.8;12.2;;;;;;;-3.61;75.69727;946.7361;;;;
2022/03/01 04:29:57;;;;;;;18;12.1;;;;;;;-3.84;76.68262;946.6992;;;;
2022/03/01 04:32:31;;;;;;;20.6;12.9;;;;;;;-3.81;76.32324;946.6617;;;;
2022/03/01 04:34:56;;;;;;;19.3;12.3;;;;;;;-3.83;76.48438;946.5586;;;;
2022/03/01 04:37:22;;;;;;;18.3;11.8;;;;;;;-3.82;76.55176;946.5999;;;;
2022/03/01 04:39:47;;;;;;;22.5;11.8;;;;;;;-3.89;76.81641;946.5429;;;;
2022/03/01 04:42:14;;;;;;;18.3;10.6;;;;;;;-3.95;76.91504;946.4751;;;;
2022/03/01 04:44:39;;;;;;;23.7;12.1;;;;;;;-4.06;77.29199;946.5356;;;;
2022/03/01 04:47:06;;;;;;;15.8;7.2;;;;;;;-4.22;78.00098;946.5306;;;;
2022/03/01 04:49:31;;;;;;;16;8.1;;;;;;;-4.14;78.21484;946.4895;;;;
2022/03/01 04:51:56;;;;;;;13.9;8.5;;;;;;;-4.03;78.13574;946.5137;;;;
2022/03/01 04:54:25;;;;;;;15.3;8.1;;;;;;;-3.99;77.96777;946.527;;;;
2022/03/01 04:56:51;;;;;;;18.9;8.9;;;;;;;-4.01;78.06348;946.5172;;;;
2022/03/01 04:59:16;;;;;;;15.7;8.6;;;;;;;-4.06;77.96484;946.4869;;;;
2022/03/01 05:01:45;;;;;;;12.9;8.3;;;;;;;-4.07;78.13086;946.4846;;;;
2022/03/01 05:04:17;;;;;;;15.5;8.5;;;;;;;-4.11;77.95508;946.5016;;;;
2022/03/01 05:06:42;;;;;;;17.1;9.4;;;;;;;-4.08;77.75;946.4833;;;;
2022/03/01 05:09:12;;;;;;;15.8;8.5;;;;;;;-4.05;78.04199;946.452;;;;
2022/03/01 05:11:37;;;;;;;14.8;8.6;;;;;;;-4.02;77.55469;946.5372;;;;
2022/03/01 05:14:02;;;;;;;17.4;9.4;;;;;;;-4.03;77.41895;946.5323;;;;
2022/03/01 05:16:33;;;;;;;17.3;9.5;;;;;;;-3.97;77.28711;946.4356;;;;
2022/03/01 05:19:01;;;;;;;18.7;9.3;;;;;;;-3.98;77.25195;946.4317;;;;
2022/03/01 05:21:29;;;;;;;20;10.1;;;;;;;-3.96;77.16699;946.3837;;;;
2022/03/01 05:23:54;;;;;;;17;8.4;;;;;;;-3.95;76.80469;946.4891;;;;
2022/03/01 05:26:26;;;;;;;13.3;7.8;;;;;;;-4.02;77.09082;946.5714;;;;
2022/03/01 05:28:53;;;;;;;15.3;7.7;;;;;;;-4.14;77.48633;946.5108;;;;
2022/03/01 05:31:19;;;;;;;13.4;8.2;;;;;;;-4.18;75.87891;946.4952;;;;
2022/03/01 05:33:45;;;;;;;15.5;8.3;;;;;;;-3.8;74.9541;946.4744;;;;
2022/03/01 05:36:10;;;;;;;15.2;8.4;;;;;;;-3.78;74.68359;946.5711;;;;
2022/03/01 05:38:36;;;;;;;13.5;7.8;;;;;;;-3.73;74.54785;946.5921;;;;
2022/03/01 05:41:04;;;;;;;16.9;8.1;;;;;;;-3.69;74.125;946.6046;;;;
2022/03/01 05:43:29;;;;;;;24;8;;;;;;;-3.61;73.26758;946.6437;;;;
2022/03/01 05:45:59;;;;;;;18.3;9.2;;;;;;;-3.59;74.24023;946.666;;;;
2022/03/01 05:48:24;;;;;;;15.2;7.8;;;;;;;-3.74;74.22754;946.6767;;;;
2022/03/01 05:50:54;;;;;;;17.1;9.3;;;;;;;-3.88;75.21777;946.7123;;;;
2022/03/01 05:53:19;;;;;;;19.5;8.4;;;;;;;-4.04;76.36914;946.7294;;;;
2022/03/01 05:55:47;;;;;;;12.4;7.9;;;;;;;-3.91;76.43555;946.7952;;;;
2022/03/01 05:58:12;;;;;;;15.9;9.3;;;;;;;-3.93;75.6709;946.6671;;;;
2022/03/01 06:00:42;;;;;;;14.4;8.6;;;;;;;-4.19;75.67871;946.8903;;;;
2022/03/01 06:03:07;;;;;;;12.7;7.8;;;;;;;-3.85;74.62793;946.8431;;;;
2022/03/01 06:05:36;;;;;;;13.5;8.3;;;;;;;-3.65;72.37598;946.813;;;;
2022/03/01 06:08:01;;;;;;;13.8;8.1;;;;;;;-3.57;71.30762;946.9216;;;;
2022/03/01 06:10:30;;;;;;;13.7;7.6;;;;;;;-3.67;71.04883;946.8549;;;;
2022/03/01 06:12:55;;;;;;;12.8;7.6;;;;;;;-3.53;69.54785;946.8758;;;;
2022/03/01 06:15:21;;;;;;;16.9;7.8;;;;;;;-3.44;69.38477;946.9722;;;;
2022/03/01 06:17:47;;;;;;;14;8.2;;;;;;;-3.31;67.60645;946.9813;;;;
2022/03/01 06:20:14;;;;;;;16.7;9;;;;;;;-3.22;68.25;946.996;;;;
2022/03/01 06:22:40;;;;;;;25.6;10.1;;;;;;;-3.16;68.15918;946.9807;;;;
2022/03/01 06:25:14;;;;;;;14.2;8.1;;;;;;;-2.98;67.89063;947.0781;;;;
2022/03/01 06:27:40;;;;;;;13.7;8.1;;;;;;;-2.98;67.47168;947.0857;;;;
2022/03/01 06:30:15;;;;;;;17.7;7.9;;;;;;;-2.82;66.55566;947.0931;;;;
2022/03/01 06:32:48;;;;;;;23.1;8.9;;;;;;;-2.45;66.68066;947.153;;;;
2022/03/01 06:35:24;;;;;;;17.3;8.9;;;;;;;-1.48;63.73828;947.152;;;;
2022/03/01 06:37:54;;;;;;;10.2;6.9;;;;;;;-0.79;58.69629;947.1213;;;;
2022/03/01 06:40:22;;;;;;;11.9;7.1;;;;;;;-0.25;57.80176;947.1096;;;;
2022/03/01 06:42:49;;;;;;;9.8;6.2;;;;;;;0.14;56.06055;947.2341;;;;
2022/03/01 06:45:18;;;;;;;10.8;6.5;;;;;;;0.23;54.56738;947.1906;;;;
2022/03/01 06:47:46;;;;;;;9.1;5.8;;;;;;;0.8;54.02832;947.1867;;;;
2022/03/01 06:50:18;;;;;;;15.3;7.4;;;;;;;0.63;54.80957;947.1834;;;;
2022/03/01 06:52:44;;;;;;;18.6;8.7;;;;;;;0.71;53.85938;947.1994;;;;
2022/03/01 06:55:12;;;;;;;19.3;8.7;;;;;;;0.41;57.22363;947.2022;;;;
2022/03/01 06:57:41;;;;;;;20.3;9.4;;;;;;;0.18;59.39746;947.2413;;;;
2022/03/01 07:00:19;;;;;;;18.6;9.6;;;;;;;0.42;60.48047;947.2676;;;;
2022/03/01 07:02:49;;;;;;;20.8;10.1;;;;;;;-0.09;59.8291;947.2924;;;;
2022/03/01 07:05:21;;;;;;;16;9.5;;;;;;;-0.07;60.1543;947.3008;;;;
2022/03/01 07:07:45;;;;;;;15.3;9.1;;;;;;;0.02;59.98926;947.3315;;;;
2022/03/01 07:10:21;;;;;;;14.7;8.6;;;;;;;-0.13;60.11035;947.327;;;;
2022/03/01 07:12:52;;;;;;;21.2;8.3;;;;;;;0.56;58.99414;947.3176;;;;
2022/03/01 07:15:26;;;;;;;15;8.2;;;;;;;1.13;56.23633;947.2853;;;;
2022/03/01 07:17:51;;;;;;;16.4;8;;;;;;;1.38;55.23047;947.3121;;;;
2022/03/01 07:20:24;;;;;;;15.8;8;;;;;;;1.64;54.4375;947.2994;;;;
2022/03/01 07:22:52;;;;;;;12.8;7.8;;;;;;;2.03;53.11035;947.363;;;;
2022/03/01 07:25:17;;;;;;;12.7;8.2;;;;;;;1.84;52.65137;947.3583;;;;
2022/03/01 07:27:49;;;;;;;12.2;7.7;;;;;;;1.56;53.44434;947.3992;;;;
2022/03/01 07:30:20;;;;;;;13.9;7.3;;;;;;;2.33;51.45801;947.3979;;;;
2022/03/01 07:32:49;;;;;;;12;6.7;;;;;;;2.71;50.39355;947.3594;;;;
2022/03/01 07:35:14;;;;;;;14;7.7;;;;;;;2.48;50.71289;947.301;;;;
2022/03/01 07:37:41;;;;;;;11.1;7.2;;;;;;;2.12;51.19727;947.4327;;;;
2022/03/01 07:40:07;;;;;;;12;7.3;;;;;;;1.59;52.79883;947.4666;;;;
2022/03/01 07:42:36;;;;;;;11.6;7.2;;;;;;;1.84;52.27148;947.4645;;;;
2022/03/01 07:45:01;;;;;;;11.5;6.6;;;;;;;2.02;50.44531;947.4597;;;;
2022/03/01 07:47:27;;;;;;;12.8;7.2;;;;;;;2.54;50.20508;947.4916;;;;
2022/03/01 07:49:52;;;;;;;13.2;6.8;;;;;;;2.38;49.46875;947.5061;;;;
2022/03/01 07:52:19;;;;;;;15.9;7.4;;;;;;;3.3;47.0957;947.495;;;;
2022/03/01 07:54:44;;;;;;;13.8;6.8;;;;;;;4.01;46.10645;947.5159;;;;
2022/03/01 07:57:10;;;;;;;12.3;6.2;;;;;;;3.14;47.05566;947.5527;;;;
2022/03/01 07:59:36;;;;;;;22.1;7.3;;;;;;;4.23;45.16113;947.4824;;;;
2022/03/01 08:02:03;;;;;;;11;6.6;;;;;;;3.67;46.94531;947.5282;;;;
2022/03/01 08:04:33;;;;;;;13.6;5.8;;;;;;;4.06;44.8291;947.4283;;;;
2022/03/01 08:07:03;;;;;;;10;6;;;;;;;4.79;42.3252;947.4081;;;;
2022/03/01 08:09:28;;;;;;;8.1;5.5;;;;;;;5.28;40.00586;947.4286;;;;
2022/03/01 08:11:57;;;;;;;10.9;6.1;;;;;;;6.03;39.55566;947.2629;;;;
2022/03/01 08:14:22;;;;;;;11.1;6;;;;;;;7.7;35.7168;947.2645;;;;
2022/03/01 08:16:58;;;;;;;11.8;5.5;;;;;;;8.52;34.80859;947.2372;;;;
2022/03/01 08:19:33;;;;;;;10.6;5.2;;;;;;;8.92;32.79395;947.1746;;;;
2022/03/01 08:21:58;;;;;;;10.4;5.7;;;;;;;9.68;30.86914;947.1742;;;;
2022/03/01 08:24:28;;;;;;;10.1;6.2;;;;;;;7;32.71582;947.2695;;;;
2022/03/01 08:26:54;;;;;;;9;6;;;;;;;6.58;34.35742;947.2805;;;;
2022/03/01 08:29:24;;;;;;;8.8;6.2;;;;;;;8.08;32.32129;947.2473;;;;
2022/03/01 08:31:52;;;;;;;10;6.5;;;;;;;7.68;33.10742;947.3195;;;;
2022/03/01 08:34:16;;;;;;;10.7;6.5;;;;;;;9.05;30.47168;947.2653;;;;
2022/03/01 08:36:44;;;;;;;13.9;5.7;;;;;;;8.38;30.94629;947.1736;;;;
2022/03/01 08:39:09;;;;;;;8.6;5.5;;;;;;;9.03;30.45898;947.2227;;;;
2022/03/01 08:41:43;;;;;;;7.7;5.2;;;;;;;10.4;28.23828;947.1786;;;;
2022/03/01 08:44:13;;;;;;;8.6;5.4;;;;;;;13.02;25.87207;947.0642;;;;
2022/03/01 08:46:44;;;;;;;10.8;5.4;;;;;;;14.17;24.89258;947.0629;;;;
2022/03/01 08:49:11;;;;;;;12.1;5.7;;;;;;;14.91;24.34668;947.0256;;;;
2022/03/01 08:51:36;;;;;;;7.7;5.2;;;;;;;15.29;24.14844;946.9531;;;;
2022/03/01 08:54:05;;;;;;;11.6;6.1;;;;;;;12.85;26.22852;947.075;;;;
2022/03/01 08:56:30;;;;;;;7.1;5.5;;;;;;;12.73;26.04883;947.0162;;;;
2022/03/01 08:58:57;;;;;;;15.7;6.1;;;;;;;15.94;23.27051;946.9625;;;;
2022/03/01 09:01:23;;;;;;;11.8;5.7;;;;;;;17.23;22.16797;946.9838;;;;
2022/03/01 09:03:53;;;;;;;5.9;4.6;;;;;;;14.64;23.78906;946.9672;;;;
2022/03/01 09:06:20;;;;;;;5.9;4.6;;;;;;;14.16;24.25781;946.9738;;;;
2022/03/01 09:08:44;;;;;;;7.6;4.6;;;;;;;13.79;24.13379;946.8502;;;;
2022/03/01 09:11:14;;;;;;;6.7;4.3;;;;;;;15.08;23.65137;946.9042;;;;
2022/03/01 09:13:42;;;;;;;12.5;4.7;;;;;;;15.21;22.95508;946.8625;;;;
2022/03/01 09:16:20;;;;;;;10.2;4.2;;;;;;;15.79;22.38379;946.7609;;;;
2022/03/01 09:18:46;;;;;;;31.9;6.7;;;;;;;12.34;24.91406;946.7411;;;;
2022/03/01 09:21:16;;;;;;;10.4;4.8;;;;;;;13.14;24.14453;946.6956;;;;
2022/03/01 09:23:47;;;;;;;8.4;4.6;;;;;;;10.99;26.68848;946.7717;;;;
2022/03/01 09:26:16;;;;;;;7.2;4.8;;;;;;;13.37;24.44434;946.7399;;;;
2022/03/01 09:28:46;;;;;;;8;5;;;;;;;11.82;25.36523;946.683;;;;
2022/03/01 09:31:12;;;;;;;5.5;4.3;;;;;;;10.23;26.8457;946.6387;;;;
2022/03/01 09:33:42;;;;;;;7.5;5.3;;;;;;;10.06;28.33008;946.6795;;;;
2022/03/01 09:36:08;;;;;;;10.2;6.6;;;;;;;12.51;25.53125;946.5539;;;;
2022/03/01 09:38:42;;;;;;;6.2;4.9;;;;;;;13.3;24.7627;946.5255;;;;
2022/03/01 09:41:09;;;;;;;10.4;5;;;;;;;14.03;22.78906;946.3832;;;;
2022/03/01 09:43:39;;;;;;;6.8;4.6;;;;;;;13.53;21.90137;946.3517;;;;
2022/03/01 09:46:04;;;;;;;9.2;4.7;;;;;;;11.21;24.59766;946.4461;;;;
2022/03/01 09:48:33;;;;;;;10.3;5;;;;;;;10.67;25.50293;946.4345;;;;
2022/03/01 09:50:58;;;;;;;7.7;4.4;;;;;;;9.64;25.54492;946.4319;;;;
2022/03/01 09:53:25;;;;;;;8;4.9;;;;;;;9.22;26.72656;946.3742;;;;
2022/03/01 09:55:50;;;;;;;9.5;4.9;;;;;;;9.24;26.54492;946.2935;;;;
2022/03/01 09:58:20;;;;;;;7.5;4.5;;;;;;;9.19;26.70215;946.2012;;;;
2022/03/01 10:00:51;;;;;;;5.1;4.2;;;;;;;10.27;25.62891;946.1997;;;;
2022/03/01 10:03:21;;;;;;;6.8;4.2;;;;;;;10.31;25.62988;946.1663;;;;
2022/03/01 10:05:46;;;;;;;6.6;4.1;;;;;;;10.96;25.26953;946.1606;;;;
2022/03/01 10:08:15;;;;;;;5.8;4.3;;;;;;;11.21;24.71094;946.0924;;;;
2022/03/01 10:10:47;;;;;;;10.3;4.7;;;;;;;11.54;27.05371;946.0123;;;;
2022/03/01 10:13:13;;;;;;;7.1;4.2;;;;;;;12.12;25.03906;946.0306;;;;
2022/03/01 10:15:50;;;;;;;5.3;4.4;;;;;;;12.89;24.22168;945.9877;;;;
2022/03/01 10:18:18;;;;;;;6.8;5.3;;;;;;;12.72;24.70605;945.9533;;;;
2022/03/01 10:20:47;;;;;;;6.5;3.7;;;;;;;13.27;24.08203;945.9756;;;;
2022/03/01 10:23:12;;;;;;;6.2;3.5;;;;;;;13.96;21.77246;945.9226;;;;
2022/03/01 10:25:44;;;;;;;20.5;5.7;;;;;;;14.14;21.69043;945.926;;;;
2022/03/01 10:28:09;;;;;;;7.8;5;;;;;;;13.22;21.02344;945.899;;;;
2022/03/01 10:30:39;;;;;;;7.9;4.7;;;;;;;12.45;22.01855;945.8956;;;;
2022/03/01 10:33:04;;;;;;;12.7;4.1;;;;;;;12.59;22.23242;945.8951;;;;
2022/03/01 10:35:29;;;;;;;4.2;2.8;;;;;;;13.22;22.05762;945.847;;;;
2022/03/01 10:37:54;;;;;;;4;2.8;;;;;;;11.66;20.70703;945.8121;;;;
2022/03/01 10:40:27;;;;;;;4.5;3.1;;;;;;;11.11;20.78418;945.798;;;;
2022/03/01 10:42:52;;;;;;;20.3;5.4;;;;;;;12.08;22.5498;945.7648;;;;
2022/03/01 10:45:18;;;;;;;4;3;;;;;;;12.2;21.08887;945.7555;;;;
2022/03/01 10:47:50;;;;;;;5.1;2.9;;;;;;;11.95;20.7793;945.666;;;;
2022/03/01 10:50:16;;;;;;;3.6;2.6;;;;;;;11.62;20.15723;945.601;;;;
2022/03/01 10:52:45;;;;;;;4;2.5;;;;;;;12.57;19.2373;945.5497;;;;
2022/03/01 10:55:10;;;;;;;3.2;2.8;;;;;;;13.6;20.34082;945.4897;;;;
2022/03/01 10:57:39;;;;;;;4.4;2.9;;;;;;;12.9;18.73535;945.4818;;;;
2022/03/01 11:00:17;;;;;;;3.2;2.3;;;;;;;14.6;20.29492;945.4597;;;;
2022/03/01 11:02:47;;;;;;;3.2;2.5;;;;;;;15.22;18.06152;945.3881;;;;
2022/03/01 11:05:12;;;;;;;4.6;2.5;;;;;;;15.11;17.23828;945.3578;;;;
2022/03/01 11:07:37;;;;;;;4.7;2.8;;;;;;;15.08;17.72168;945.2919;;;;
2022/03/01 11:10:07;;;;;;;3.1;2.3;;;;;;;14.52;17.76758;945.2581;;;;
2022/03/01 11:12:35;;;;;;;3.2;2.4;;;;;;;14.73;17.23438;945.2104;;;;
2022/03/01 11:15:06;;;;;;;3.5;2.7;;;;;;;15.8;16.97656;945.1266;;;;
2022/03/01 11:17:34;;;;;;;3.5;2.2;;;;;;;17.09;17.72168;945.0933;;;;
2022/03/01 11:20:03;;;;;;;3;2.3;;;;;;;16.93;15.66406;945.0399;;;;
2022/03/01 11:22:34;;;;;;;4.2;2.6;;;;;;;18.36;15.48242;944.9451;;;;
2022/03/01 11:25:08;;;;;;;2.8;2.4;;;;;;;18.66;14.93555;944.9188;;;;
2022/03/01 11:27:40;;;;;;;3.2;2.4;;;;;;;18.2;14.64063;944.8787;;;;
2022/03/01 11:30:13;;;;;;;3.8;2.4;;;;;;;19.61;14.85059;944.7609;;;;
2022/03/01 11:32:44;;;;;;;2.7;2;;;;;;;20.3;13.48438;944.5989;;;;
2022/03/01 11:35:11;;;;;;;2.9;2.1;;;;;;;19.62;14.04688;944.618;;;;
2022/03/01 11:37:41;;;;;;;2.4;1.9;;;;;;;18.64;15.45801;944.5881;;;;
2022/03/01 11:40:18;;;;;;;3;1.9;;;;;;;19.01;14.83105;944.5073;;;;
2022/03/01 11:42:48;;;;;;;2.5;1.9;;;;;;;19;13.96875;944.3879;;;;
2022/03/01 11:45:12;;;;;;;3.5;2;;;;;;;19.37;14.2373;944.3066;;;;
2022/03/01 11:47:41;;;;;;;3.8;1.9;;;;;;;19.95;12.86719;944.2922;;;;
2022/03/01 11:50:06;;;;;;;2;1.8;;;;;;;19.8;12.86328;944.2281;;;;
2022/03/01 11:52:32;;;;;;;2.5;1.8;;;;;;;21.22;12.08594;944.1188;;;;
2022/03/01 11:54:57;;;;;;;4.9;2.2;;;;;;;22.22;12.1709;944.1096;;;;
2022/03/01 11:57:25;;;;;;;4;2;;;;;;;21.77;11.33887;944.0812;;;;
2022/03/01 11:59:49;;;;;;;4.7;2;;;;;;;21.75;12.68555;943.9949;;;;
2022/03/01 12:02:12;;;;;;;4.6;2;;;;;;;23;11.89844;944.0172;;;;
2022/03/01 12:04:37;;;;;;;2.4;1.9;;;;;;;23.49;11.12402;944.0176;;;;
2022/03/01 12:07:02;;;;;;;8;2.4;;;;;;;23.41;11.35742;943.9908;;;;
2022/03/01 12:09:30;;;;;;;2.7;1.7;;;;;;;23.05;11.19531;943.8853;;;;
2022/03/01 12:12:00;;;;;;;2.4;1.8;;;;;;;23.58;10.24414;943.9088;;;;
2022/03/01 12:14:26;;;;;;;3.1;2.1;;;;;;;23.13;11.53809;943.7976;;;;
2022/03/01 12:16:53;;;;;;;6.1;2.2;;;;;;;25;9.864258;943.7358;;;;
2022/03/01 12:19:19;;;;;;;4.7;2;;;;;;;23.09;10.50293;943.7637;;;;
2022/03/01 12:21:47;;;;;;;3.2;2.4;;;;;;;22.9;10.49902;943.73;;;;
2022/03/01 12:24:12;;;;;;;4;1.6;;;;;;;20.87;10.67285;943.735;;;;
2022/03/01 12:26:38;;;;;;;2.2;1.6;;;;;;;21.2;11.96777;943.7353;;;;
2022/03/01 12:29:03;;;;;;;4.3;1.8;;;;;;;24.08;10.2793;943.627;;;;
2022/03/01 12:31:39;;;;;;;1.4;1.3;;;;;;;21.99;10.30176;943.5812;;;;
2022/03/01 12:34:04;;;;;;;1.5;1.4;;;;;;;22.24;9.427734;943.5723;;;;
2022/03/01 12:36:34;;;;;;;1.4;1.3;;;;;;;24.29;9.860352;943.5087;;;;
2022/03/01 12:38:59;;;;;;;2.4;1.5;;;;;;;26.29;7.892578;943.5359;;;;
2022/03/01 12:41:27;;;;;;;1.5;1.4;;;;;;;28.03;7.068359;943.4096;;;;
2022/03/01 12:43:56;;;;;;;3.9;1.3;;;;;;;28.89;8.009766;943.4152;;;;
2022/03/01 12:46:22;;;;;;;1.9;1.3;;;;;;;28.68;7.81543;943.4391;;;;
2022/03/01 12:48:50;;;;;;;1.9;1.2;;;;;;;27.18;7.861328;943.4108;;;;
2022/03/01 12:51:14;;;;;;;1.2;1.1;;;;;;;26.5;8.061523;943.4344;;;;
2022/03/01 12:53:43;;;;;;;1.4;1.3;;;;;;;27.3;7.68457;943.4014;;;;
2022/03/01 12:56:08;;;;;;;1.1;1;;;;;;;28.04;7.257813;943.4208;;;;
2022/03/01 12:58:38;;;;;;;1.7;1.1;;;;;;;29.27;7.111328;943.4606;;;;
2022/03/01 13:01:02;;;;;;;2.2;1.3;;;;;;;27.28;8.705078;943.4537;;;;
2022/03/01 13:03:33;;;;;;;2.9;1.9;;;;;;;27.34;10.73438;943.4445;;;;
2022/03/01 13:06:10;;;;;;;2.7;2.1;;;;;;;24.44;13.20996;943.4233;;;;
2022/03/01 13:08:37;;;;;;;4.3;2.4;;;;;;;20.98;15.01367;943.4849;;;;
2022/03/01 13:11:02;;;;;;;3.3;2.4;;;;;;;20.9;15.85254;943.4397;;;;
2022/03/01 13:13:32;;;;;;;4.7;3;;;;;;;19.63;18.16211;943.4366;;;;
2022/03/01 13:16:02;;;;;;;3.9;2.8;;;;;;;21.06;16.12793;943.4744;;;;
2022/03/01 13:18:35;;;;;;;3.7;2.8;;;;;;;22.21;16.02832;943.4828;;;;
2022/03/01 13:21:07;;;;;;;3.5;2.9;;;;;;;19.99;18.1416;943.348;;;;
2022/03/01 13:23:37;;;;;;;5;3.2;;;;;;;20.18;17.36816;943.4434;;;;
2022/03/01 13:26:04;;;;;;;4.4;2.9;;;;;;;21.88;15.91113;943.4285;;;;
2022/03/01 13:28:29;;;;;;;4.7;3.1;;;;;;;21.53;16.15625;943.4724;;;;
2022/03/01 13:31:03;;;;;;;3.8;2.9;;;;;;;21.19;15.45313;943.457;;;;
2022/03/01 13:33:29;;;;;;;5.3;3.5;;;;;;;21.5;15.96777;943.5056;;;;
2022/03/01 13:35:59;;;;;;;5;3.3;;;;;;;20.92;16.66016;943.4619;;;;
2022/03/01 13:38:28;;;;;;;4.2;3.4;;;;;;;21.19;16.9043;943.5734;;;;
2022/03/01 13:40:53;;;;;;;4.9;3.6;;;;;;;21.4;16.52637;943.4695;;;;
2022/03/01 13:43:22;;;;;;;6.4;3.7;;;;;;;20.43;18.20703;943.457;;;;
2022/03/01 13:45:47;;;;;;;5.1;3.5;;;;;;;20.42;17.34277;943.449;;;;
2022/03/01 13:48:15;;;;;;;4;3.6;;;;;;;19.9;18.4541;943.4903;;;;
2022/03/01 13:50:45;;;;;;;5.8;3.8;;;;;;;20.36;18.04004;943.4959;;;;
2022/03/01 13:53:11;;;;;;;4.5;3.7;;;;;;;20.73;17.70508;943.5742;;;;
2022/03/01 13:55:41;;;;;;;5.3;4;;;;;;;20.62;17.5957;943.5133;;;;
2022/03/01 13:58:10;;;;;;;6;4;;;;;;;19.33;18.80273;943.4278;;;;
2022/03/01 14:00:33;;;;;;;4.8;3.9;;;;;;;19.09;19.375;943.5055;;;;
2022/03/01 14:03:04;;;;;;;6.2;4;;;;;;;20.09;19.0332;943.4807;;;;
2022/03/01 14:05:39;;;;;;;6.2;4;;;;;;;20.71;17.8916;943.467;;;;
2022/03/01 14:08:03;;;;;;;5.2;3.8;;;;;;;20.59;18.1084;943.4158;;;;
2022/03/01 14:10:28;;;;;;;6.2;3.7;;;;;;;20.89;17.41992;943.4819;;;;
2022/03/01 14:12:53;;;;;;;5.2;3.7;;;;;;;21.81;16.95215;943.4396;;;;
2022/03/01 14:15:22;;;;;;;4.7;3.6;;;;;;;21.28;17.29395;943.3387;;;;
2022/03/01 14:17:49;;;;;;;5.1;3.6;;;;;;;19.32;20.43262;943.4191;;;;
2022/03/01 14:20:26;;;;;;;5.3;3.8;;;;;;;18.86;19.46875;943.4117;;;;
2022/03/01 14:22:51;;;;;;;4.9;3.7;;;;;;;19.2;19.22754;943.4102;;;;
2022/03/01 14:25:23;;;;;;;5.4;3.9;;;;;;;20.38;18.73047;943.3928;;;;
2022/03/01 14:27:48;;;;;;;6;3.7;;;;;;;19.18;19.70508;943.3378;;;;